Bracey, VA

7:37 PM EST on March 01, 2015 (GMT -0500)
MATTHEWS MANORWOOD @ LAKE GASTON | Change Station
CLOSE
Current Station
Personal Weather Station
Location: Macon, NC
Elevation: 268 ft
Nearby Weather Stations

Elev 268 ft 36.53 °N, 78.06 °W | Updated 11 minutes ago

Overcast
Overcast
32.5 °F
Feels Like 32 °F
N
0.0
Wind Variable Wind from ESE
Gusts 0.0 mph

Today
High -- | Low -- °F
--% Chance of Precip.
Yesterday
High -- | Low -- °F
Precip. -- in
6:43 AM 6:06 PM
Waxing Gibbous, 88% visible
Pressure 30.40 in
Visibility 7.0 miles
Clouds Overcast 400 ft
Windchill 32 °F
Dew Point 32 °F
Humidity 97%
Rainfall 0.00 in
Snow Depth Not available.
UV 0 out of 12
Pollen .80 out of 12
Air Quality Not available.
Flu Activity Not available.
METAR KAVC 020016Z AUTO 00000KT 7SM OVC004 00/00 A3040 RMK AO2 T10011005

More Conditions Fewer Conditions

Pressure 30.40 in
Visibility 7.0 miles
Clouds Overcast 400 ft
Windchill 32 °F
Dew Point 32 °F
Humidity 97%
Rainfall 0.00 in
Snow Depth Not available.
UV 0 out of 12
Pollen .80 out of 12
Air Quality Not available.
Flu Activity Not available.
METAR KAVC 020016Z AUTO 00000KT 7SM OVC004 00/00 A3040 RMK AO2 T10011005

More Conditions Fewer Conditions

10-Day Weather Forecast

Almanac

Astronomy

Mar. 01, 2015 Rise Set
Actual Time
Civil Twilight
Nautical Twilight
Astronomical Twilight
Moon
Length of Visible Light
Length of Day
Tomorrow will be .
, % of the Moon is Illuminated

Today's Extremes

State Highs State Lows

Community

WunderPhotos

Upload Photos

1,801,651 photos uploaded!

WunderBlogs® & News

Nearby

Air Quality

  Air Quality AQ Index Pollutant
Not available.

Snow Depth

Station Depth Elevation

Earthquake Activity

City Distance Mag. Time & Date
Minimum magnitude displayed is 2.5.

Coastal Water Temperatures

Place Temperature

Nearby Weather Stations